Time;durP1;ratioP1;P1;durP2;ratioP2;P2;SDS_P1;SDS_P2;PMS_P1;PMS_P2;Temp;Humidity;BMP_temperature;BMP_pressure;BME280_temperature;BME280_humidity;BME280_pressure;Samples;Min_cycle;Max_cycle;Signal;HPM_P1;HPM_P2
2021/09/03 00:01:27;;;;;;;9.75;8.85;;;12.80;99.90;;;13.62;88.96;98465.31;5203075;28;20209;-56
2021/09/03 00:04:01;;;;;;;10.57;9.60;;;12.70;99.90;;;13.55;88.42;98470.03;5208363;28;20320;-59
2021/09/03 00:06:34;;;;;;;9.75;8.85;;;12.70;99.90;;;13.56;88.48;98464.06;5207576;28;20657;-57
2021/09/03 00:09:09;;;;;;;10.60;9.57;;;12.70;99.90;;;13.52;88.32;98455.31;5208002;28;20198;-58
2021/09/03 00:11:42;;;;;;;10.30;9.30;;;12.70;99.90;;;13.48;88.66;98456.84;5204475;28;20657;-56
2021/09/03 00:14:15;;;;;;;10.23;9.23;;;12.60;99.90;;;13.45;87.91;98454.13;5208887;28;20585;-57
2021/09/03 00:16:48;;;;;;;9.50;8.70;;;12.60;99.90;;;13.43;89.23;98463.41;5208858;28;20194;-57
2021/09/03 00:19:21;;;;;;;9.15;8.18;;;12.60;99.90;;;13.41;89.20;98449.59;5207814;28;20213;-57
2021/09/03 00:21:54;;;;;;;10.13;9.15;;;12.50;99.90;;;13.38;88.13;98458.81;5208809;28;20194;-58
2021/09/03 00:24:28;;;;;;;9.75;8.82;;;12.40;99.90;;;13.33;88.21;98455.09;5208329;28;20225;-56
2021/09/03 00:27:01;;;;;;;10.52;9.43;;;12.40;99.90;;;13.31;88.19;98455.03;5208566;28;20201;-56
2021/09/03 00:29:37;;;;;;;9.43;8.57;;;12.40;99.90;;;13.23;88.04;98448.53;5206281;28;20201;-57
2021/09/03 00:32:10;;;;;;;10.68;8.77;;;12.40;99.90;;;13.20;88.35;98446.69;5199919;28;20205;-58
2021/09/03 00:34:43;;;;;;;10.13;9.13;;;12.30;99.90;;;13.20;89.00;98449.25;5199605;28;20214;-58
2021/09/03 00:37:16;;;;;;;9.73;8.82;;;12.30;99.90;;;13.12;89.46;98444.50;5206678;28;20212;-58
2021/09/03 00:39:52;;;;;;;9.73;8.93;;;12.30;99.90;;;13.11;88.51;98437.59;5208433;28;20210;-58
2021/09/03 00:42:25;;;;;;;10.10;9.15;;;12.30;99.90;;;13.10;88.65;98440.94;5208107;28;20668;-59
2021/09/03 00:44:59;;;;;;;10.05;9.05;;;12.30;99.90;;;13.04;88.78;98447.50;5208117;28;20233;-59
2021/09/03 00:47:32;;;;;;;10.00;9.10;;;12.20;99.90;;;13.02;88.66;98437.94;5208099;28;20198;-58
2021/09/03 00:50:07;;;;;;;10.27;9.27;;;12.20;99.90;;;12.99;88.39;98441.25;5206941;28;20202;-57
2021/09/03 00:52:40;;;;;;;10.25;9.25;;;12.20;99.90;;;12.96;88.96;98437.59;5207616;28;20228;-58
2021/09/03 00:55:15;;;;;;;9.70;8.80;;;12.10;99.90;;;12.96;88.98;98433.38;5207479;28;20190;-58
2021/09/03 00:57:49;;;;;;;10.10;9.10;;;12.20;99.90;;;12.95;88.92;98428.13;5208289;28;20320;-58
2021/09/03 01:00:22;;;;;;;10.95;9.85;;;12.10;99.90;;;12.97;88.29;98430.00;5207974;28;20209;-57
2021/09/03 01:02:55;;;;;;;10.23;9.27;;;12.10;99.90;;;13.01;89.00;98431.91;5207195;28;20615;-59
2021/09/03 01:05:29;;;;;;;9.85;8.95;;;12.10;99.90;;;12.98;88.07;98430.88;5207974;28;20217;-58
2021/09/03 01:08:02;;;;;;;10.20;9.30;;;12.10;99.90;;;12.95;88.81;98431.56;5207787;28;20279;-58
2021/09/03 01:10:37;;;;;;;9.40;8.55;;;12.10;99.90;;;12.89;89.35;98418.41;5206947;28;20202;-58
2021/09/03 01:13:10;;;;;;;9.82;8.95;;;12.00;99.90;;;12.88;88.66;98424.34;5206606;28;20225;-58
2021/09/03 01:15:43;;;;;;;9.90;8.73;;;12.00;99.90;;;12.89;89.85;98430.34;5206857;28;20201;-56
2021/09/03 01:18:16;;;;;;;9.85;8.95;;;12.00;99.90;;;12.82;89.73;98426.56;5206933;28;20224;-57
2021/09/03 01:20:49;;;;;;;10.88;9.38;;;12.00;99.90;;;12.82;89.49;98430.00;5207765;28;20209;-58
2021/09/03 01:23:24;;;;;;;9.90;9.00;;;12.00;99.90;;;12.81;89.49;98423.09;5207359;28;20226;-56
2021/09/03 01:26:02;;;;;;;9.60;8.65;;;12.00;99.90;;;12.77;88.79;98425.41;5206712;28;20581;-56
2021/09/03 01:28:35;;;;;;;10.70;9.70;;;12.00;99.90;;;12.78;89.40;98424.59;5207212;28;20573;-58
2021/09/03 01:31:08;;;;;;;10.30;9.30;;;12.00;99.90;;;12.76;89.07;98427.09;5202865;28;20213;-56
2021/09/03 01:33:42;;;;;;;10.02;8.88;;;11.90;99.90;;;12.74;89.41;98432.94;5186688;28;20230;-57
2021/09/03 01:36:15;;;;;;;10.13;9.10;;;11.90;99.90;;;12.73;88.95;98428.56;5186683;28;20198;-58
2021/09/03 01:38:49;;;;;;;10.48;9.48;;;11.90;99.90;;;12.70;89.67;98428.41;5204644;28;20194;-57
2021/09/03 01:41:22;;;;;;;9.48;8.57;;;11.90;99.90;;;12.67;89.33;98430.78;5207265;28;20225;-57
2021/09/03 01:43:55;;;;;;;10.23;9.23;;;11.80;99.90;;;12.63;88.72;98417.78;5214521;22;20242;-63
2021/09/03 01:46:28;;;;;;;10.05;9.05;;;11.80;99.90;;;12.62;88.60;98427.97;5186357;28;20657;-64
2021/09/03 01:49:01;;;;;;;10.23;9.23;;;11.70;99.90;;;12.51;88.30;98426.47;5207376;28;20237;-64
2021/09/03 01:51:35;;;;;;;9.82;8.82;;;11.60;99.90;;;12.50;88.71;98425.56;5189068;28;20576;-63
2021/09/03 01:54:09;;;;;;;10.13;9.13;;;11.60;99.90;;;12.50;88.94;98427.25;5186393;28;20223;-63
2021/09/03 01:56:42;;;;;;;10.25;9.27;;;11.60;99.90;;;12.47;89.19;98427.94;5186872;28;20205;-63
2021/09/03 01:59:15;;;;;;;10.15;9.25;;;11.60;99.90;;;12.47;89.72;98427.06;5186817;28;20214;-63
2021/09/03 02:01:48;;;;;;;10.90;9.80;;;11.60;99.90;;;12.42;90.15;98418.22;5186482;28;20205;-63
2021/09/03 02:04:21;;;;;;;11.50;10.35;;;11.60;99.90;;;12.43;90.15;98420.88;5184640;28;20304;-63
2021/09/03 02:06:54;;;;;;;10.63;9.60;;;11.60;99.90;;;12.41;90.04;98414.75;5186535;28;20206;-63
2021/09/03 02:09:29;;;;;;;11.23;10.13;;;11.60;99.90;;;12.38;90.02;98417.16;5186469;28;20203;-63
2021/09/03 02:12:02;;;;;;;10.43;9.32;;;11.50;99.90;;;12.38;90.27;98412.91;5185831;28;20229;-61
2021/09/03 02:14:35;;;;;;;10.50;9.50;;;11.50;99.90;;;12.32;90.15;98409.09;5185801;28;20249;-64
2021/09/03 02:17:08;;;;;;;11.00;9.90;;;11.50;99.90;;;12.33;89.59;98411.78;5186206;28;20209;-64
2021/09/03 02:19:41;;;;;;;10.38;9.38;;;11.50;99.90;;;12.26;89.60;98408.75;5185465;28;20297;-63
2021/09/03 02:22:14;;;;;;;10.57;9.57;;;11.40;99.90;;;12.28;89.51;98409.72;5186113;28;20237;-61
2021/09/03 02:24:49;;;;;;;10.57;9.60;;;11.40;99.90;;;12.25;89.98;98401.88;5185740;28;20596;-63
2021/09/03 02:27:22;;;;;;;9.90;9.02;;;11.40;99.90;;;12.23;89.27;98400.88;5186197;28;20209;-63
2021/09/03 02:29:55;;;;;;;9.80;8.85;;;11.40;99.90;;;12.14;88.94;98402.09;5186278;28;20576;-63
2021/09/03 02:32:28;;;;;;;9.52;8.63;;;11.30;99.90;;;12.15;88.58;98396.16;5184847;28;20205;-63
2021/09/03 02:35:01;;;;;;;10.13;9.15;;;11.20;99.90;;;12.08;88.97;98406.84;5185958;28;20218;-62
2021/09/03 02:37:34;;;;;;;9.65;8.65;;;11.20;99.90;;;12.04;88.67;98397.19;5185870;28;20709;-63
2021/09/03 02:40:10;;;;;;;9.63;8.73;;;11.20;99.90;;;12.05;88.98;98405.81;5186057;28;20203;-63
2021/09/03 02:42:43;;;;;;;10.85;9.77;;;11.20;99.90;;;12.00;89.89;98400.38;5185838;28;20206;-63
2021/09/03 02:45:16;;;;;;;9.55;8.65;;;11.20;99.90;;;12.01;89.87;98406.41;5184961;28;20317;-63
2021/09/03 02:47:49;;;;;;;9.93;8.98;;;11.20;99.90;;;11.99;89.87;98398.63;5185094;28;20202;-63
2021/09/03 02:50:22;;;;;;;10.10;9.20;;;11.20;99.90;;;12.02;90.03;98403.03;5185644;28;20199;-63
2021/09/03 02:52:58;;;;;;;10.27;9.27;;;11.20;99.90;;;12.05;89.72;98403.25;5185229;28;20213;-63
2021/09/03 02:55:33;;;;;;;9.55;8.75;;;11.20;99.90;;;11.98;90.14;98399.41;5184095;28;20205;-64
2021/09/03 02:58:06;;;;;;;9.38;8.50;;;11.10;99.90;;;11.91;89.30;98392.16;5185759;28;20212;-61
2021/09/03 03:00:39;;;;;;;9.77;8.77;;;11.00;99.90;;;11.87;89.35;98385.06;5184492;28;20202;-64
2021/09/03 03:03:12;;;;;;;9.43;8.45;;;11.00;99.90;;;11.84;89.26;98387.41;5184609;28;20745;-63
2021/09/03 03:05:45;;;;;;;10.70;9.68;;;11.00;99.90;;;11.79;90.33;98384.59;5185102;28;20227;-63
2021/09/03 03:08:18;;;;;;;10.10;9.20;;;11.00;99.90;;;11.82;89.02;98389.88;5185223;28;20205;-63
2021/09/03 03:10:53;;;;;;;9.90;9.02;;;11.00;99.90;;;11.83;88.72;98380.53;5185383;28;20203;-62
2021/09/03 03:13:28;;;;;;;10.55;9.55;;;11.00;99.90;;;11.78;89.59;98369.13;5184456;28;20248;-63
2021/09/03 03:16:01;;;;;;;9.65;8.85;;;10.90;99.90;;;11.76;89.48;98375.81;5185896;28;20204;-62
2021/09/03 03:18:34;;;;;;;10.00;9.10;;;10.90;99.90;;;11.75;89.27;98372.38;5184166;28;20237;-62
2021/09/03 03:21:08;;;;;;;10.15;9.07;;;10.90;99.90;;;11.72;89.98;98362.81;5185269;28;20209;-62
2021/09/03 03:23:41;;;;;;;9.43;8.63;;;11.00;99.90;;;11.70;89.94;98374.66;5184912;28;20577;-63
2021/09/03 03:26:15;;;;;;;9.82;8.82;;;10.90;99.90;;;11.71;89.41;98370.44;5184424;28;20229;-62
2021/09/03 03:28:48;;;;;;;9.50;8.60;;;10.90;99.90;;;11.66;90.05;98365.00;5185037;28;20208;-62
2021/09/03 03:31:21;;;;;;;10.40;9.40;;;10.90;99.90;;;11.64;89.66;98358.03;5184956;28;20228;-63
2021/09/03 03:33:54;;;;;;;9.60;8.70;;;10.80;99.90;;;11.57;88.99;98356.78;5184305;28;20222;-62
2021/09/03 03:36:27;;;;;;;10.18;9.10;;;10.80;99.90;;;11.55;89.58;98350.66;5184688;28;20199;-62
2021/09/03 03:39:00;;;;;;;9.50;8.60;;;10.70;99.90;;;11.47;89.75;98362.13;5184680;28;20586;-63
2021/09/03 03:41:35;;;;;;;9.90;9.00;;;10.70;99.90;;;11.48;91.59;98345.97;5184335;28;20701;-63
2021/09/03 03:44:08;;;;;;;10.23;9.32;;;10.70;99.90;;;11.46;91.11;98345.00;5184499;28;20226;-62
2021/09/03 03:46:41;;;;;;;10.60;9.65;;;10.70;99.90;;;11.43;90.00;98337.13;5184805;28;20229;-62
2021/09/03 03:49:15;;;;;;;10.27;9.20;;;10.60;99.90;;;11.41;90.44;98341.25;5185099;28;20678;-62
2021/09/03 03:51:48;;;;;;;9.95;8.98;;;10.60;99.90;;;11.42;91.52;98340.50;5184131;28;20737;-63
2021/09/03 03:54:21;;;;;;;10.52;9.52;;;10.70;99.90;;;11.43;91.31;98343.13;5183956;28;20224;-63
2021/09/03 03:56:55;;;;;;;9.77;8.90;;;10.60;99.90;;;11.43;92.00;98332.00;5184780;28;20203;-63
2021/09/03 03:59:28;;;;;;;9.75;8.95;;;10.70;99.90;;;11.40;91.54;98327.59;5185093;28;20595;-63
2021/09/03 04:02:02;;;;;;;10.60;9.52;;;10.70;99.90;;;11.42;92.00;98332.81;5183884;28;20203;-63
2021/09/03 04:04:35;;;;;;;10.32;9.32;;;10.70;99.90;;;11.46;92.48;98332.19;5184839;28;20694;-63
2021/09/03 04:07:08;;;;;;;10.13;9.13;;;10.70;99.90;;;11.48;92.88;98335.75;5178043;28;20224;-63
2021/09/03 04:09:41;;;;;;;9.63;8.75;;;10.80;99.90;;;11.48;92.13;98338.31;5185106;28;20593;-63
2021/09/03 04:12:16;;;;;;;9.57;8.43;;;10.70;99.90;;;11.49;91.42;98345.19;5183751;28;20757;-63
2021/09/03 04:14:49;;;;;;;9.57;8.77;;;10.70;99.90;;;11.47;90.38;98341.63;5166555;28;20317;-62
2021/09/03 04:17:22;;;;;;;9.95;8.80;;;10.70;99.90;;;11.42;90.23;98350.72;5183831;28;20203;-63
2021/09/03 04:19:55;;;;;;;9.63;8.10;;;10.60;99.90;;;11.40;90.42;98337.81;5183959;28;20674;-62
2021/09/03 04:22:28;;;;;;;9.98;9.05;;;10.60;99.90;;;11.42;90.82;98335.38;5183262;28;20203;-62
2021/09/03 04:25:01;;;;;;;10.07;9.07;;;10.60;99.90;;;11.40;90.69;98335.25;5184268;28;20720;-62
2021/09/03 04:27:39;;;;;;;9.60;8.80;;;10.60;99.90;;;11.33;90.71;98342.47;5176237;28;20254;-62
2021/09/03 04:30:13;;;;;;;9.77;8.88;;;10.60;99.90;;;11.34;91.35;98351.94;5176144;28;20285;-61
2021/09/03 04:32:47;;;;;;;9.88;8.98;;;10.50;99.90;;;11.32;90.89;98344.13;5183725;28;20700;-62
2021/09/03 04:35:21;;;;;;;10.52;9.60;;;10.50;99.90;;;11.28;90.36;98348.19;5184571;28;20224;-62
2021/09/03 04:37:54;;;;;;;10.00;9.10;;;10.50;99.90;;;11.25;90.43;98348.00;5183560;28;20199;-61
2021/09/03 04:40:27;;;;;;;10.50;9.52;;;10.50;99.90;;;11.22;90.46;98350.38;5183618;28;20294;-62
2021/09/03 04:43:01;;;;;;;9.85;8.90;;;10.50;99.90;;;11.23;91.31;98354.69;5182647;28;20202;-62
2021/09/03 04:45:34;;;;;;;10.43;9.40;;;10.50;99.90;;;11.25;91.84;98358.25;5180592;28;20199;-63
2021/09/03 04:48:08;;;;;;;10.38;9.35;;;10.50;99.90;;;11.26;91.05;98359.13;5169052;28;20210;-63
2021/09/03 04:50:41;;;;;;;10.55;9.55;;;10.50;99.90;;;11.23;91.89;98354.69;5187067;28;20573;-63
2021/09/03 04:53:14;;;;;;;10.10;9.15;;;10.50;99.90;;;11.31;91.01;98361.97;5183794;28;20656;-62
2021/09/03 04:55:47;;;;;;;11.00;10.00;;;10.50;99.90;;;11.25;91.01;98357.38;5167692;28;20374;-62
2021/09/03 04:58:21;;;;;;;9.30;8.40;;;10.40;99.90;;;11.25;90.50;98365.91;5168053;28;20209;-63
2021/09/03 05:00:54;;;;;;;10.93;9.85;;;10.40;99.90;;;11.28;90.74;98373.78;5175411;28;20651;-63
2021/09/03 05:03:28;;;;;;;10.40;9.50;;;10.40;99.90;;;11.29;90.45;98379.78;5174498;28;20690;-63
2021/09/03 05:06:01;;;;;;;10.82;9.82;;;10.50;99.90;;;11.30;90.96;98375.53;5185610;28;20317;-63
2021/09/03 05:08:34;;;;;;;10.55;9.50;;;10.50;99.90;;;11.29;91.69;98374.66;5186795;28;20204;-63
2021/09/03 05:11:07;;;;;;;10.45;9.45;;;10.50;99.90;;;11.32;90.65;98374.84;5169750;28;20641;-61
2021/09/03 05:13:42;;;;;;;9.48;8.68;;;10.50;99.90;;;11.39;90.71;98374.47;5171844;28;20715;-61
2021/09/03 05:16:15;;;;;;;10.07;9.18;;;10.60;99.90;;;11.40;89.75;98372.78;5190794;28;20254;-62
2021/09/03 11:15:31;;;;;;;6.75;6.15;;;24.20;91.90;;;24.65;44.08;98222.59;5339320;27;20599;-63
2021/09/03 11:18:10;;;;;;;6.53;5.95;;;24.40;92.20;;;24.79;42.52;98217.47;5319511;27;20201;-63
2021/09/03 11:20:55;;;;;;;6.13;5.63;;;24.40;91.60;;;24.97;42.21;98218.44;5302313;22;20210;-58
2021/09/03 11:23:40;;;;;;;6.22;5.72;;;24.40;91.60;;;24.89;41.86;98208.78;5282573;28;20202;-57
2021/09/03 11:26:17;;;;;;;6.30;5.80;;;24.30;91.40;;;24.87;42.63;98212.28;5270808;28;20199;-58
2021/09/03 11:28:51;;;;;;;6.38;5.88;;;24.30;91.80;;;24.99;42.45;98201.03;5277477;28;20218;-57
2021/09/03 11:31:25;;;;;;;6.07;5.57;;;24.30;91.70;;;24.90;41.46;98207.09;5275867;28;20199;-57
2021/09/03 11:34:04;;;;;;;6.50;5.90;;;24.30;91.30;;;25.01;41.90;98196.66;5276276;28;20451;-56
2021/09/03 11:36:48;;;;;;;5.95;5.55;;;24.30;91.80;;;24.96;42.27;98196.66;5268797;28;20199;-56
2021/09/03 11:39:21;;;;;;;6.47;5.65;;;24.40;91.30;;;24.78;42.49;98194.81;5275815;28;20215;-57
2021/09/03 11:41:54;;;;;;;6.22;5.72;;;24.30;91.30;;;24.64;42.38;98199.94;5280681;28;20199;-57
2021/09/03 11:44:27;;;;;;;6.13;5.63;;;24.10;91.40;;;24.69;41.88;98192.97;5281971;28;20191;-56
2021/09/03 11:47:01;;;;;;;7.07;5.57;;;24.10;91.00;;;24.73;41.98;98186.94;5281723;28;20670;-58
2021/09/03 11:49:34;;;;;;;6.20;5.68;;;24.10;91.70;;;24.84;42.29;98188.72;5284401;28;20211;-57
2021/09/03 11:52:07;;;;;;;6.60;6.10;;;24.20;91.30;;;24.91;41.67;98188.75;5283026;28;20206;-55
2021/09/03 11:54:50;;;;;;;6.20;5.60;;;24.30;91.20;;;25.09;42.46;98193.19;5279798;28;20219;-58
2021/09/03 11:57:24;;;;;;;6.05;5.55;;;24.30;91.50;;;25.20;41.46;98189.81;5281254;28;20206;-56
2021/09/03 12:00:02;;;;;;;6.55;6.05;;;24.40;91.10;;;25.33;40.47;98192.47;5263483;28;20615;-56
2021/09/03 12:02:37;;;;;;;5.78;5.38;;;24.60;90.50;;;25.28;39.53;98198.56;5275536;28;20206;-60
2021/09/03 12:05:10;;;;;;;5.80;5.30;;;24.60;89.50;;;25.26;38.89;98184.59;5277477;28;20294;-56
2021/09/03 12:08:26;;;;;;;6.07;5.55;;;24.50;88.50;;;25.25;39.99;98194.19;5282832;28;20205;-57
2021/09/03 12:11:03;;;;;;;6.00;5.50;;;24.50;89.30;;;25.26;40.81;98189.81;5264754;28;20217;-55
2021/09/03 12:13:40;;;;;;;5.97;5.47;;;24.50;90.60;;;25.14;40.68;98186.28;5277101;28;20226;-57
2021/09/03 12:16:19;;;;;;;5.97;5.47;;;24.50;90.30;;;25.23;41.13;98182.84;5261123;28;20196;-56
2021/09/03 12:18:56;;;;;;;5.95;5.30;;;24.50;90.40;;;25.22;39.52;98178.47;5253428;28;20222;-56
2021/09/03 12:21:32;;;;;;;6.20;5.70;;;24.50;89.20;;;25.12;39.99;98185.41;5261742;28;20211;-57
2021/09/03 12:24:09;;;;;;;5.35;4.95;;;24.30;89.30;;;25.12;39.60;98174.03;5257488;28;20188;-57
2021/09/03 12:26:47;;;;;;;5.55;5.13;;;24.30;88.60;;;25.02;39.71;98180.97;5267044;28;20184;-58
2021/09/03 12:29:24;;;;;;;6.20;5.60;;;24.30;88.90;;;25.22;39.37;98177.63;5266864;28;20223;-58
2021/09/03 12:32:00;;;;;;;5.95;5.45;;;24.40;89.00;;;25.33;38.80;98173.28;5260879;28;20525;-59
2021/09/03 12:34:36;;;;;;;5.85;5.35;;;24.50;87.50;;;25.33;38.59;98170.69;5250379;28;20207;-58
2021/09/03 12:37:10;;;;;;;6.13;5.57;;;24.60;87.50;;;25.27;39.45;98170.66;5252006;28;20202;-58
2021/09/03 12:39:43;;;;;;;6.22;5.55;;;24.50;88.30;;;25.25;39.17;98162.78;5270021;28;20616;-59
2021/09/03 12:42:18;;;;;;;5.85;5.35;;;24.40;87.50;;;25.21;38.03;98170.63;5269635;28;20196;-58
2021/09/03 12:45:00;;;;;;;5.97;5.53;;;24.30;86.20;;;25.11;37.81;98165.31;5269679;28;20221;-59
2021/09/03 12:47:35;;;;;;;6.15;5.65;;;24.20;85.40;;;25.02;38.95;98161.81;5259528;28;20237;-57
2021/09/03 12:50:14;;;;;;;5.43;5.00;;;24.30;87.60;;;25.02;39.83;98160.06;5256084;28;20703;-59
2021/09/03 12:52:50;;;;;;;6.00;5.50;;;24.30;89.10;;;25.09;38.20;98161.81;5269761;28;20199;-59
2021/09/03 12:55:23;;;;;;;5.90;5.40;;;24.50;86.50;;;24.98;39.33;98158.31;5269340;28;20225;-58
2021/09/03 12:57:56;;;;;;;5.63;5.22;;;24.30;87.90;;;24.92;38.27;98150.41;5269881;28;20196;-59
2021/09/03 13:00:29;;;;;;;6.13;5.63;;;24.30;85.80;;;24.90;38.44;98150.41;5268030;28;20221;-57
2021/09/03 13:03:02;;;;;;;5.75;5.35;;;24.20;86.70;;;24.98;38.78;98146.94;5251225;28;20210;-56
2021/09/03 13:05:38;;;;;;;5.60;5.10;;;24.20;87.60;;;25.18;38.59;98147.91;5253257;28;20214;-56
2021/09/03 13:08:11;;;;;;;6.20;5.60;;;24.30;87.20;;;25.14;37.94;98144.44;5269434;28;20195;-56
2021/09/03 13:10:44;;;;;;;6.45;5.60;;;24.30;86.00;;;25.27;38.86;98134.03;5269518;28;20572;-56
2021/09/03 13:13:17;;;;;;;6.00;5.50;;;24.40;88.10;;;25.19;39.59;98141.84;5266364;28;20203;-56
2021/09/03 13:15:50;;;;;;;5.97;5.38;;;24.40;87.00;;;25.11;39.31;98133.91;5264857;28;20223;-57
2021/09/03 13:18:24;;;;;;;5.60;5.20;;;24.40;87.20;;;25.10;39.55;98134.81;5260511;28;20211;-53
2021/09/03 13:20:59;;;;;;;8.25;5.80;;;24.30;88.80;;;25.21;39.67;98123.50;5251828;28;20285;-57
2021/09/03 13:23:32;;;;;;;6.05;5.55;;;24.40;88.10;;;25.32;38.60;98122.66;5255368;28;20256;-57
2021/09/03 13:26:05;;;;;;;5.40;5.00;;;24.50;87.20;;;25.15;38.26;98119.13;5258253;28;20202;-58
2021/09/03 13:28:48;;;;;;;5.65;5.25;;;24.40;85.70;;;25.18;37.94;98119.13;5258496;28;20203;-57
2021/09/03 13:31:22;;;;;;;5.72;5.28;;;24.30;86.30;;;25.14;38.58;98115.66;5247238;28;20238;-54
2021/09/03 13:33:58;;;;;;;6.00;5.50;;;24.30;86.80;;;25.13;38.19;98113.88;5264244;28;20199;-60
2021/09/03 13:36:35;;;;;;;5.43;5.03;;;24.30;86.30;;;25.07;37.59;98100.78;5257824;28;20199;-57
2021/09/03 13:39:09;;;;;;;5.45;5.05;;;24.20;85.40;;;25.07;38.88;98100.78;5259801;28;20222;-59
2021/09/03 13:41:42;;;;;;;6.40;5.85;;;24.20;87.70;;;25.22;40.01;98101.72;5257380;28;20203;-60
2021/09/03 13:44:15;;;;;;;5.75;5.25;;;24.30;89.40;;;25.42;38.47;98094.78;5260855;28;20640;-59
2021/09/03 13:46:48;;;;;;;6.00;5.40;;;24.40;87.20;;;25.39;37.96;98094.78;5259104;28;20191;-59
2021/09/03 13:49:22;;;;;;;6.10;5.57;;;24.50;85.60;;;25.15;38.37;98093.88;5257486;28;20701;-56
2021/09/03 13:51:57;;;;;;;6.07;5.35;;;24.40;85.50;;;25.31;38.10;98089.53;5260129;28;20198;-57
2021/09/03 13:54:30;;;;;;;6.25;5.75;;;24.40;86.10;;;25.23;38.42;98086.00;5252755;28;20219;-60
2021/09/03 13:57:04;;;;;;;5.70;5.20;;;24.50;85.90;;;25.26;38.30;98085.16;5267972;28;20199;-58
2021/09/03 13:59:38;;;;;;;6.45;5.13;;;24.40;86.40;;;25.15;39.00;98082.50;5248057;28;20599;-57
2021/09/03 14:02:11;;;;;;;5.70;5.30;;;24.30;87.80;;;25.27;39.15;98085.16;5255212;28;20213;-58
2021/09/03 14:04:47;;;;;;;5.97;5.43;;;24.30;87.00;;;25.33;38.77;98073.84;5253673;28;20211;-60
2021/09/03 14:07:21;;;;;;;5.88;5.38;;;24.40;87.30;;;25.20;40.04;98078.16;5252895;28;20205;-64
2021/09/03 14:09:54;;;;;;;6.20;5.60;;;24.40;88.20;;;25.07;38.77;98069.38;5253039;28;20215;-61
2021/09/03 14:12:27;;;;;;;6.38;5.57;;;24.30;85.40;;;25.03;39.55;98072.84;5251585;28;20212;-62
2021/09/03 14:15:00;;;;;;;6.40;5.80;;;24.30;87.50;;;24.96;39.19;98063.25;5247187;28;20216;-62
2021/09/03 14:17:35;;;;;;;5.88;5.38;;;24.20;86.70;;;25.02;39.43;98063.25;5249809;28;20252;-62
2021/09/03 14:20:10;;;;;;;6.10;5.60;;;24.20;87.90;;;25.19;39.47;98065.09;5250601;28;21023;-63
2021/09/03 14:22:44;;;;;;;5.82;5.32;;;24.20;88.00;;;25.10;40.11;98063.28;5253003;28;20202;-60
2021/09/03 14:25:18;;;;;;;5.93;5.50;;;24.20;88.50;;;25.21;39.53;98056.38;5254046;28;20194;-58
2021/09/03 14:27:52;;;;;;;6.32;5.72;;;24.30;87.60;;;25.45;38.26;98050.28;5264394;28;20551;-60
2021/09/03 14:30:25;;;;;;;6.38;5.78;;;24.50;86.20;;;25.37;38.59;98052.03;5262121;28;20219;-61
2021/09/03 14:32:59;;;;;;;5.88;5.38;;;24.50;86.60;;;25.18;39.66;98051.09;5249566;28;20237;-58
2021/09/03 14:35:32;;;;;;;6.03;5.50;;;24.30;88.50;;;25.10;39.19;98048.47;5253179;28;20242;-58
2021/09/03 14:38:07;;;;;;;6.10;5.55;;;24.30;87.30;;;25.13;38.53;98056.31;5250554;28;20252;-60
2021/09/03 14:40:40;;;;;;;6.70;6.10;;;24.30;86.30;;;25.05;39.16;98044.97;5248795;28;20223;-56
2021/09/03 14:43:13;;;;;;;7.32;6.60;;;24.20;86.70;;;25.00;39.71;98037.97;5249863;28;20411;-56
2021/09/03 14:45:46;;;;;;;6.22;5.70;;;24.20;87.20;;;25.01;39.55;98038.00;5248523;28;20204;-62
2021/09/03 14:48:20;;;;;;;8.07;5.43;;;24.20;87.20;;;24.93;40.22;98032.72;5250343;28;20191;-61
2021/09/03 14:50:53;;;;;;;13.07;6.88;;;24.20;87.80;;;24.86;38.79;98037.94;5252496;28;20620;-54
2021/09/03 14:53:27;;;;;;;6.68;6.07;;;24.10;86.60;;;24.82;39.45;98025.72;5251677;28;20191;-60
2021/09/03 14:56:00;;;;;;;8.05;5.70;;;24.10;87.00;;;24.91;40.13;98026.59;5250684;28;20229;-58
2021/09/03 14:58:33;;;;;;;6.18;5.53;;;24.10;87.80;;;25.00;39.20;98023.13;5249405;28;20392;-60
2021/09/03 15:01:06;;;;;;;6.50;5.30;;;24.10;86.20;;;24.92;39.68;98022.25;5249017;28;20198;-60
2021/09/03 15:03:40;;;;;;;5.38;4.97;;;24.10;87.00;;;25.09;39.08;98025.78;5250894;28;20249;-59
2021/09/03 15:06:13;;;;;;;7.10;5.38;;;24.20;86.60;;;25.07;40.09;98017.06;5253467;28;20205;-60
2021/09/03 15:08:48;;;;;;;6.10;5.40;;;24.20;88.20;;;25.13;40.46;98014.47;5251690;28;20206;-59
2021/09/03 15:11:21;;;;;;;5.88;5.38;;;24.20;88.70;;;25.12;39.93;98015.34;5250553;28;20199;-57
2021/09/03 15:13:55;;;;;;;5.68;4.88;;;24.30;88.00;;;25.15;39.96;98015.38;5247738;28;20199;-57
2021/09/03 15:16:28;;;;;;;6.00;5.50;;;24.30;87.80;;;25.13;40.62;98016.22;5248262;28;20219;-59
2021/09/03 15:19:01;;;;;;;6.05;5.55;;;24.20;88.80;;;25.10;40.40;98022.31;5253894;28;20227;-54
2021/09/03 15:21:35;;;;;;;5.68;5.18;;;24.20;88.10;;;25.35;39.15;98014.50;5249716;28;20195;-59
2021/09/03 15:24:09;;;;;;;5.97;5.45;;;24.30;86.60;;;25.44;38.14;98011.00;5248429;28;20202;-59
2021/09/03 15:26:43;;;;;;;6.38;5.15;;;24.50;85.90;;;25.39;38.27;98005.78;5250555;28;20660;-60
2021/09/03 15:29:17;;;;;;;6.10;5.50;;;24.40;86.30;;;25.22;38.88;98005.78;5249584;28;20227;-61
2021/09/03 15:31:50;;;;;;;5.55;5.07;;;24.30;86.50;;;25.01;40.25;98001.38;5250336;28;20211;-57
2021/09/03 15:34:23;;;;;;;5.78;5.28;;;24.20;87.70;;;24.94;39.29;98003.06;5251696;28;20211;-57
2021/09/03 15:36:59;;;;;;;6.13;5.53;;;24.10;86.80;;;24.90;38.79;97996.09;5248782;28;20251;-59
2021/09/03 15:39:34;;;;;;;6.03;5.35;;;24.00;85.90;;;24.82;39.49;98005.66;5251523;28;20230;-58
2021/09/03 15:42:07;;;;;;;5.20;4.72;;;24.00;87.40;;;24.82;40.56;98004.81;5248734;28;20191;-58
2021/09/03 15:44:40;;;;;;;6.00;5.50;;;23.90;88.30;;;24.79;39.91;98002.19;5250348;28;20605;-59
2021/09/03 15:47:13;;;;;;;7.38;5.38;;;23.90;88.20;;;24.79;40.33;97999.56;5247296;28;20204;-58
2021/09/03 15:49:47;;;;;;;5.38;4.88;;;23.90;87.70;;;24.94;40.29;97994.38;5248546;28;20247;-59
2021/09/03 15:52:20;;;;;;;6.07;5.50;;;24.10;87.80;;;24.81;39.31;98008.25;5253804;28;20215;-56
2021/09/03 15:54:54;;;;;;;6.05;5.55;;;24.00;86.60;;;24.58;39.42;97998.63;5251161;28;20208;-59
2021/09/03 15:57:28;;;;;;;5.45;4.95;;;23.90;86.10;;;24.82;38.59;97999.56;5252674;28;20222;-58
2021/09/03 16:00:01;;;;;;;5.47;5.07;;;24.00;86.20;;;24.81;39.68;98003.03;5257571;28;20212;-58
2021/09/03 16:02:34;;;;;;;7.18;5.93;;;23.90;87.10;;;24.91;39.93;97994.34;5251359;28;20555;-54
2021/09/03 16:05:09;;;;;;;6.53;5.82;;;24.00;87.20;;;24.88;40.42;97991.75;5252830;28;20232;-58
2021/09/03 16:07:43;;;;;;;6.13;5.63;;;24.00;88.60;;;24.76;39.36;97995.19;5258924;28;20197;-59
2021/09/03 16:10:17;;;;;;;5.60;5.10;;;23.90;86.60;;;24.68;39.65;97995.16;5261614;28;20223;-59
2021/09/03 16:12:50;;;;;;;5.78;5.13;;;23.80;87.20;;;24.54;39.50;97989.00;5268767;28;20207;-59
2021/09/03 16:15:23;;;;;;;5.82;5.32;;;23.70;86.90;;;24.52;39.70;98000.31;5268996;28;20200;-59
2021/09/03 16:17:58;;;;;;;5.85;5.35;;;23.70;86.90;;;24.49;38.88;97990.72;5268805;28;20199;-58
2021/09/03 16:20:31;;;;;;;5.95;5.45;;;23.60;85.40;;;24.41;39.03;97989.78;5267708;28;20745;-58
2021/09/03 16:23:04;;;;;;;5.65;5.05;;;23.60;86.20;;;24.39;39.67;97987.19;5258475;28;20204;-56
2021/09/03 16:25:40;;;;;;;5.75;5.25;;;23.50;87.30;;;24.38;40.28;97988.06;5268680;28;20196;-60
2021/09/03 16:28:13;;;;;;;6.60;6.10;;;23.40;88.20;;;24.29;40.44;97985.38;5268567;28;20206;-58
2021/09/03 16:30:46;;;;;;;7.82;7.18;;;23.40;88.20;;;24.25;40.69;97988.88;5258334;28;20335;-56
2021/09/03 16:33:20;;;;;;;7.63;7.03;;;23.30;88.50;;;24.18;41.09;97985.38;5247310;28;20701;-59
2021/09/03 16:35:53;;;;;;;6.80;6.30;;;23.30;88.50;;;24.13;40.75;97991.44;5248424;28;20213;-60
2021/09/03 16:38:26;;;;;;;7.82;7.03;;;23.20;88.00;;;24.09;41.11;97985.28;5261688;28;20192;-57
2021/09/03 16:41:01;;;;;;;6.80;6.22;;;23.20;88.90;;;24.10;40.55;97989.66;5248554;28;20690;-58
2021/09/03 16:43:34;;;;;;;11.77;10.77;;;23.20;88.40;;;24.02;41.50;97987.00;5247267;28;20196;-59